• Join FlightAware (Why Join?)
  • Login
  • US Flag 
07:09PM EDT


 

Airport Tracker/Info


-or-


 

Live Flight TrackerFlight Track Log ✈ SKW4968 ✈ 27-Jun-2013 ✈ KIAH - KCOS

Flight Track Log - Related Links

Times and Time Zones

All times are in EDT time to prevent confusion due to time zone crossing. See the SKW4968 flight status page for this flight to view local times or setup timezone preferences in your user account.

Time Position Orientation Groundspeed Altitude Reporting Facility
EDT Latitude Longitude Course Direction KTS MPH feet Rate Location/Type
07:04PM 29.9575 -95.3442 337° Northwest 175 201 700  Level Houston Center
07:05PM 29.9456 -95.3961 255° West 243 280 2,500 1,500 Climbing Houston Center
07:05PM 29.9808 -95.4061 346° North 250 288 3,300 2,040 Climbing Houston Center
07:06PM 30.0558 -95.3997 North 267 307 5,800 2,400 Climbing Houston Center
07:07PM 30.4152 -95.5862 334° Northwest  Level FlightAware Approximate
07:07PM 30.1342 -95.3964 North 279 321 8,300  Level Houston Center
07:08PM 30.5249 -95.6458 337° Northwest  Level FlightAware Approximate
07:08PM 30.2131 -95.4222 344° North 312 359 10,200  Level Houston Center
07:09PM 30.6362 -95.7014 337° Northwest  Level FlightAware Approximate
07:09PM 30.2919 -95.4792 328° Northwest 334 384 11,600  Level Houston Center
07:10PM 30.3936 -95.5511 329° Northwest 356 410 13,700 1,920 Climbing Houston Center
07:11PM 30.4800 -95.6131 328° Northwest 363 418 15,600 1,860 Climbing Houston Center
07:13PM 30.5706 -95.6706 331° Northwest 367 422 17,600 1,560 Climbing Houston Center
07:14PM 30.6672 -95.7214 336° Northwest 379 436 18,900 1,320 Climbing Houston Center
07:15PM 30.7806 -95.7833 335° Northwest 393 452 20,400 1,320 Climbing Houston Center
07:16PM 30.8817 -95.8372 335° Northwest 399 459 21,700 1,320 Climbing Houston Center
07:17PM 30.9847 -95.8936 335° Northwest 405 466 23,200 1,200 Climbing Houston Center
07:18PM 31.0903 -95.9494 336° Northwest 410 472 24,300 960 Climbing Houston Center
07:19PM 31.2033 -95.9978 340° North 425 489 25,300 1,020 Climbing Houston Center
07:20PM 31.3192 -96.0425 342° North 432 497 26,500 1,200 Climbing Houston Center
07:21PM 31.4533 -96.1106 337° Northwest 437 503 27,900 1,020 Climbing Houston Center
07:22PM 31.5597 -96.1886 328° Northwest 449 517 28,700 840 Climbing Houston Center
07:23PM 31.6675 -96.2664 328° Northwest 450 518 29,700 960 Climbing Houston Center
07:24PM 31.7764 -96.3464 328° Northwest 455 524 30,800 1,020 Climbing Houston Center
07:25PM 31.8844 -96.4253 328° Northwest 454 522 31,900 540 Climbing Houston Center
07:26PM 32.0014 -96.5167 326° Northwest 450 518 32,000  Climbing Fort Worth Center
07:27PM 32.1083 -96.5967 328° Northwest 462 532 32,000 480 Level Fort Worth Center
07:28PM 32.2153 -96.6767 328° Northwest 462 532 33,000 960 Climbing Fort Worth Center
07:29PM 32.3203 -96.7569 327° Northwest 457 526 34,000 480 Climbing Fort Worth Center
07:30PM 32.4106 -96.8672 314° West 457 526 34,000  Level Fort Worth Center
07:31PM 32.4986 -96.9800 313° West 457 526 34,000  Level Fort Worth Center
07:32PM 32.5867 -97.0928 313° West 468 539 34,000  Level Fort Worth Center
07:33PM 32.6767 -97.2086 313° West 468 539 34,000  Level Fort Worth Center
07:34PM 32.7728 -97.3344 312° West 468 539 34,000  Level Fort Worth Center
07:35PM 32.8647 -97.4531 313° West 468 539 34,000  Level Fort Worth Center
07:36PM 32.9564 -97.5644 314° West 468 539 34,000  Level Fort Worth Center
07:37PM 33.0481 -97.6811 313° West 474 545 34,000  Level Fort Worth Center
07:38PM 33.1522 -97.7683 325° Northwest 468 539 34,000 180 Level Fort Worth Center
07:39PM 33.2647 -97.8408 332° Northwest 468 539 34,400 480 Climbing Fort Worth Center
07:40PM 33.3792 -97.9111 333° Northwest 463 533 35,000 720 Climbing Fort Worth Center
07:41PM 33.4853 -97.9964 326° Northwest 458 527 35,900 900 Climbing Fort Worth Center
07:42PM 33.5703 -98.1139 311° West 458 527 36,900 960 Climbing Fort Worth Center
07:43PM 33.6553 -98.2294 311° West 458 527 37,900 540 Climbing Fort Worth Center
07:44PM 33.7378 -98.3400 312° West 453 521 38,000  Climbing Fort Worth Center
07:45PM 33.8206 -98.4561 311° West 453 521 38,000  Level Fort Worth Center
07:46PM 33.9050 -98.5747 311° West 458 527 38,000  Level Fort Worth Center
07:47PM 33.9853 -98.6911 310° West 458 527 38,000  Level Fort Worth Center
07:48PM 34.0614 -98.7922 312° West 451 519 38,000  Level Fort Worth Center
07:49PM 34.1536 -98.9319 309° West 459 528 38,000  Level Fort Worth Center
07:50PM 34.2356 -99.0464 311° West 459 528 38,000  Level Fort Worth Center
07:51PM 34.3094 -99.1408 313° West 453 521 38,000  Level Fort Worth Center
07:52PM 34.3911 -99.2658 308° West 453 521 38,000  Level Fort Worth Center
07:53PM 34.4750 -99.3808 312° West 453 521 38,000  Level Fort Worth Center
07:54PM 34.5544 -99.4936 311° West 453 521 38,000  Level Fort Worth Center
07:55PM 34.6339 -99.6092 310° West 448 516 38,000  Level Fort Worth Center
07:56PM 34.7153 -99.7275 310° West 448 516 38,000  Level Fort Worth Center
07:57PM 34.7922 -99.8408 310° West 448 516 38,000  Level Fort Worth Center
07:58PM 34.8567 -99.9292 312° West 445 512 38,000  Level Albuquerque Center
07:59PM 34.9367 -100.0453 310° West 445 512 38,000  Level Albuquerque Center
08:00PM 35.0297 -100.1803 310° West 439 505 38,000  Level Albuquerque Center
08:01PM 35.1075 -100.2950 310° West 438 504 38,000  Level Albuquerque Center
08:02PM 35.1864 -100.4103 310° West 439 505 38,000  Level Albuquerque Center
08:03PM 35.2653 -100.5247 310° West 438 504 38,000  Level Albuquerque Center
08:04PM 35.3417 -100.6397 309° West 435 501 38,000  Level Albuquerque Center
08:05PM 35.4153 -100.7478 310° West 436 502 38,000  Level Albuquerque Center
08:06PM 35.5086 -100.8869 310° West 440 506 38,000  Level Albuquerque Center
08:07PM 35.5700 -101.0214 299° West 453 521 38,000  Level Albuquerque Center
08:08PM 35.6311 -101.1558 299° West 455 524 38,000  Level Albuquerque Center
08:09PM 35.6922 -101.2919 299° West 457 526 38,000  Level Albuquerque Center
08:10PM 35.7531 -101.4308 298° West 463 533 38,000  Level Albuquerque Center
08:11PM 35.8269 -101.5969 299° West 464 534 38,000  Level Albuquerque Center
08:12PM 35.8883 -101.7378 298° West 467 537 38,000  Level Albuquerque Center
08:13PM 35.9494 -101.8786 298° West 469 540 38,000  Level Albuquerque Center
08:14PM 36.0178 -102.0136 302° West 469 540 38,000  Level Albuquerque Center
08:15PM 36.1108 -102.1219 317° Northwest 463 533 38,000  Level Albuquerque Center
08:16PM 36.2056 -102.2261 318° Northwest 459 528 38,000  Level Albuquerque Center
08:17PM 36.3203 -102.3517 319° Northwest 459 528 38,000  Level Albuquerque Center
08:18PM 36.4150 -102.4586 318° Northwest 460 529 38,000  Level Albuquerque Center
08:19PM 36.5103 -102.5653 318° Northwest 462 532 38,000  Level Albuquerque Center
08:21PM 36.6053 -102.6708 318° Northwest 460 529 38,000  Level Albuquerque Center
08:22PM 36.7128 -102.7914 318° Northwest 462 532 38,000 -180 Level Albuquerque Center
08:23PM 36.8036 -102.8956 317° Northwest 463 533 37,700 -720 Descending Albuquerque Center
08:24PM 36.8944 -102.9972 318° Northwest 459 528 36,600 -1,140 Descending Albuquerque Center
08:25PM 36.9981 -103.1147 318° Northwest 452 520 35,400 -1,080 Descending Albuquerque Center
08:26PM 37.0850 -103.2142 318° Northwest 444 511 34,400 -720 Descending Albuquerque Center
08:27PM 37.1867 -103.3308 318° Northwest 445 512 34,000 -240 Descending Albuquerque Center
08:28PM 37.2750 -103.4333 317° Northwest 448 516 34,000 -360 Level Albuquerque Center
08:29PM 37.3800 -103.5531 318° Northwest 455 524 33,300 -1,080 Descending Albuquerque Center
08:30PM 37.4539 -103.6381 318° Northwest 456 525 32,100 -1,740 Descending Denver Center
08:31PM 37.5417 -103.7403 317° Northwest 452 520 30,100 -2,100 Descending Denver Center
08:32PM 37.6456 -103.8600 318° Northwest 459 528 27,800 -2,280 Descending Denver Center
08:33PM 37.7453 -103.9775 317° Northwest 446 513 25,500 -2,100 Descending Denver Center
08:34PM 37.8275 -104.0736 317° Northwest 428 493 23,500 -2,160 Descending Denver Center
08:35PM 37.9189 -104.1806 317° Northwest 402 463 21,100 -2,160 Descending Denver Center
08:36PM 37.9931 -104.2692 317° Northwest 386 444 19,100 -1,980 Descending Denver Center
08:37PM 38.0764 -104.3664 317° Northwest 368 423 17,100 -1,980 Descending Denver Center
08:38PM 38.1458 -104.4489 317° Northwest 359 413 15,100 -1,500 Descending Denver Center
08:39PM 38.2136 -104.5297 317° Northwest 353 406 14,000 -540 Descending Denver Center
08:40PM 38.2825 -104.6122 317° Northwest 314 361 14,000  Level Denver Center
08:41PM 38.3539 -104.6447 340° North 302 348 14,000 -780 Level Denver Center
08:43PM 38.5348 -104.6333 North  Level FlightAware Approximate
08:44PM 38.6025 -104.6736 North 267 307 11,000  Level Denver Center
08:45PM 38.6597 -104.6867 350° North 227 261 9,600 -1,740 Descending Denver Center
08:46PM 38.7136 -104.6825 North 189 217 7,500 -2,040 Descending Denver Center